Flight Track Log - Related Links

Times and Time Zones

All times are in EDT time to prevent confusion due to time zone crossing. See the JTA613 flight status page for this flight to view local times or setup timezone preferences in your user account.

Time Position Orientation Groundspeed Altitude Reporting Facility
EDT Latitude Longitude Course Direction KTS MPH feet Rate Location/Type
Thu 01:32:00 AM 26.0360 127.3369 240° Southwest  Level Estimated
Thu 01:33:00 AM 25.9826 127.2340 240° Southwest  Level Estimated
Thu 01:34:00 AM 25.9291 127.1313 240° Southwest  Level Estimated
Thu 01:35:00 AM 25.8755 127.0287 240° Southwest  Level Estimated
Thu 01:36:00 AM 25.8219 126.9261 240° Southwest  Level Estimated
Thu 01:37:00 AM 25.7682 126.8237 240° Southwest  Level Estimated
Thu 01:38:00 AM 25.7144 126.7214 240° Southwest  Level Estimated
Thu 01:39:00 AM 25.6606 126.6191 240° Southwest  Level Estimated
Thu 01:40:00 AM 25.6067 126.5169 240° Southwest  Level Estimated
Thu 01:41:00 AM 25.5527 126.4149 240° Southwest  Level Estimated
Thu 01:42:00 AM 25.4986 126.3129 240° Southwest  Level Estimated
Thu 01:43:00 AM 25.4445 126.2110 240° Southwest  Level Estimated
Thu 01:44:00 AM 25.3903 126.1092 240° Southwest  Level Estimated
Thu 01:45:00 AM 25.3360 126.0075 239° Southwest  Level Estimated
Thu 01:46:00 AM 25.2817 125.9059 239° Southwest  Level Estimated
Thu 01:47:00 AM 25.2272 125.8043 239° Southwest  Level Estimated
Thu 01:48:00 AM 25.1728 125.7029 239° Southwest  Level Estimated
Thu 01:49:00 AM 25.1182 125.6016 239° Southwest  Level Estimated
Thu 01:50:00 AM 25.0636 125.5003 239° Southwest  Level Estimated
Thu 01:51:00 AM 25.0089 125.3991 239° Southwest  Level Estimated
Thu 01:52:00 AM 24.9542 125.2981 239° Southwest  Level Estimated
Thu 01:53:00 AM 24.8993 125.1971 239° Southwest  Level Estimated
Thu 01:54:00 AM 24.8444 125.0962 239° Southwest  Level Estimated
Thu 01:55:00 AM 24.7895 124.9954 239° Southwest  Level Estimated
Thu 01:56:00 AM 24.7345 124.8947 239° Southwest  Level Estimated
Thu 01:57:00 AM 24.6794 124.7941 239° Southwest  Level Estimated
Thu 01:58:00 AM 24.6242 124.6935 239° Southwest  Level Estimated
Thu 01:59:00 AM 24.5690 124.5931 239° Southwest  Level Estimated
Thu 02:00:00 AM 24.5137 124.4927 239° Southwest  Level Estimated
Thu 02:01:00 AM 24.4583 124.3924 239° Southwest  Level Estimated
Thu 02:02:00 AM 24.4029 124.2923 239° Southwest  Level Estimated
Thu 02:03:00 AM 24.3474 124.1922 239° Southwest  Level Estimated
Thu 02:04:00 AM 24.3445 124.1870 239° Southwest  Level Estimated
Thu 02:05:00 AM 24.3445 124.1870 North  Level Estimated
Thu 02:06:00 AM 24.3445 124.1870 North  Level Estimated
Thu 02:07:00 AM 24.3445 124.1870 North  Level Estimated
Thu 02:08:00 AM 24.3445 124.1870 North  Level Estimated
Thu 02:09:00 AM 24.3445 124.1870 North  Level Estimated
Thu 02:10:00 AM 24.3445 124.1870 North  Level Estimated

Login

Don't have an account? Register now (free) for customized features, flight alerts, and more!